Time,TemperatureF,DewpointF,PressureIn,WindDirection,WindDirectionDegrees,WindSpeedMPH,WindSpeedGustMPH,Humidity,HourlyPrecipIn,Conditions,Clouds,dailyrainin,SolarRadiationWatts/m^2,SoftwareType,DateUTC
2013-08-09 00:08:00,80.1,75.0,29.93,East,92,9.0,26.0,83,0.07,,,0.07,0,weatherlink.com 1.10,2013-08-09 04:08:00,
2013-08-09 00:23:00,78.8,75.0,29.93,NE,48,10.0,16.0,89,0.07,,,0.07,0,weatherlink.com 1.10,2013-08-09 04:23:00,
2013-08-09 00:38:00,79.7,76.0,29.92,East,79,7.0,13.0,88,0.07,,,0.07,0,weatherlink.com 1.10,2013-08-09 04:38:00,
2013-08-09 00:53:00,80.1,76.0,29.93,SE,128,13.0,19.0,88,0.07,,,0.07,0,weatherlink.com 1.10,2013-08-09 04:53:00,
2013-08-09 01:08:00,77.3,74.0,29.91,ENE,59,8.0,19.0,89,0.02,,,0.09,0,weatherlink.com 1.10,2013-08-09 05:08:00,
2013-08-09 01:24:00,77.6,75.0,29.90,East,88,3.0,10.0,91,0.02,,,0.09,0,weatherlink.com 1.10,2013-08-09 05:24:00,
2013-08-09 01:39:00,77.4,74.0,29.90,East,80,6.0,16.0,90,0.03,,,0.10,0,weatherlink.com 1.10,2013-08-09 05:39:00,
2013-08-09 01:54:00,79.7,77.0,29.89,ENE,70,13.0,18.0,90,0.03,,,0.10,0,weatherlink.com 1.10,2013-08-09 05:54:00,
2013-08-09 02:09:00,80.4,76.0,29.90,ENE,75,3.0,15.0,86,0.01,,,0.10,0,weatherlink.com 1.10,2013-08-09 06:09:00,
2013-08-09 02:24:00,79.5,76.0,29.89,East,91,3.0,8.0,89,0.01,,,0.10,0,weatherlink.com 1.10,2013-08-09 06:24:00,
2013-08-09 02:39:00,79.3,76.0,29.89,ESE,107,5.0,10.0,89,0.00,,,0.10,0,weatherlink.com 1.10,2013-08-09 06:39:00,
2013-08-09 02:54:00,78.9,76.0,29.88,ENE,77,4.0,10.0,90,0.00,,,0.10,0,weatherlink.com 1.10,2013-08-09 06:54:00,
2013-08-09 03:09:00,79.4,76.0,29.88,East,90,3.0,9.0,90,0.00,,,0.10,0,weatherlink.com 1.10,2013-08-09 07:09:00,
2013-08-09 03:24:00,79.1,76.0,29.89,ENE,78,5.0,16.0,89,0.05,,,0.15,0,weatherlink.com 1.10,2013-08-09 07:24:00,
2013-08-09 03:39:00,78.9,76.0,29.88,East,86,6.0,10.0,91,0.05,,,0.15,0,weatherlink.com 1.10,2013-08-09 07:39:00,
2013-08-09 03:54:00,77.0,74.0,29.88,East,84,8.0,26.0,89,0.09,,,0.19,0,weatherlink.com 1.10,2013-08-09 07:54:00,
2013-08-09 04:09:00,78.7,76.0,29.89,East,91,9.0,17.0,92,0.09,,,0.19,0,weatherlink.com 1.10,2013-08-09 08:09:00,
2013-08-09 04:24:00,79.2,76.0,29.89,East,96,2.0,10.0,90,0.04,,,0.19,0,weatherlink.com 1.10,2013-08-09 08:24:00,
2013-08-09 04:39:00,79.8,76.0,29.89,ENE,58,14.0,19.0,88,0.04,,,0.19,0,weatherlink.com 1.10,2013-08-09 08:39:00,
2013-08-09 04:54:00,79.8,76.0,29.89,East,89,2.0,11.0,88,0.00,,,0.19,0,weatherlink.com 1.10,2013-08-09 08:54:00,
2013-08-09 05:09:00,79.6,76.0,29.90,NE,46,6.0,21.0,89,0.00,,,0.19,0,weatherlink.com 1.10,2013-08-09 09:09:00,
2013-08-09 05:24:00,79.7,76.0,29.90,ENE,74,8.0,11.0,88,0.00,,,0.19,0,weatherlink.com 1.10,2013-08-09 09:24:00,
2013-08-09 05:39:00,79.8,76.0,29.90,ENE,68,5.0,11.0,88,0.00,,,0.19,0,weatherlink.com 1.10,2013-08-09 09:39:00,
2013-08-09 05:54:00,80.2,76.0,29.90,ENE,76,8.0,14.0,86,0.00,,,0.19,0,weatherlink.com 1.10,2013-08-09 09:54:00,
2013-08-09 06:09:00,80.2,76.0,29.90,ESE,106,4.0,16.0,87,0.02,,,0.21,5,weatherlink.com 1.10,2013-08-09 10:09:00,
2013-08-09 06:24:00,80.0,76.0,29.91,ENE,78,8.0,16.0,87,0.02,,,0.21,35,weatherlink.com 1.10,2013-08-09 10:24:00,
2013-08-09 06:39:00,81.0,76.0,29.91,NE,42,7.0,21.0,85,0.02,,,0.21,74,weatherlink.com 1.10,2013-08-09 10:39:00,
2013-08-09 06:54:00,81.8,76.0,29.91,ENE,73,10.0,18.0,82,0.02,,,0.21,139,weatherlink.com 1.10,2013-08-09 10:54:00,
2013-08-09 07:09:00,82.4,76.0,29.91,ENE,69,8.0,23.0,82,0.00,,,0.21,65,weatherlink.com 1.10,2013-08-09 11:09:00,
2013-08-09 07:24:00,82.7,76.0,29.92,ENE,58,14.0,19.0,80,0.00,,,0.21,244,weatherlink.com 1.10,2013-08-09 11:24:00,
2013-08-09 07:39:00,83.2,76.0,29.92,East,93,14.0,18.0,78,0.01,,,0.22,285,weatherlink.com 1.10,2013-08-09 11:39:00,
2013-08-09 07:54:00,83.5,76.0,29.93,East,96,11.0,22.0,78,0.01,,,0.22,353,weatherlink.com 1.10,2013-08-09 11:54:00,
2013-08-09 08:09:00,84.0,77.0,29.93,East,96,8.0,16.0,78,0.01,,,0.22,422,weatherlink.com 1.10,2013-08-09 12:09:00,
2013-08-09 08:24:00,84.1,77.0,29.93,ENE,76,8.0,22.0,78,0.01,,,0.22,455,weatherlink.com 1.10,2013-08-09 12:24:00,
2013-08-09 08:39:00,84.7,76.0,29.93,ENE,78,5.0,19.0,76,0.00,,,0.22,473,weatherlink.com 1.10,2013-08-09 12:39:00,
2013-08-09 08:54:00,85.2,77.0,29.93,East,85,7.0,17.0,76,0.00,,,0.22,555,weatherlink.com 1.10,2013-08-09 12:54:00,
2013-08-09 09:09:00,85.5,77.0,29.94,East,85,8.0,17.0,76,0.00,,,0.22,338,weatherlink.com 1.10,2013-08-09 13:09:00,
2013-08-09 09:24:00,85.5,76.0,29.94,NE,44,14.0,23.0,74,0.00,,,0.22,661,weatherlink.com 1.10,2013-08-09 13:24:00,
2013-08-09 09:39:00,86.2,77.0,29.94,East,87,9.0,16.0,75,0.00,,,0.22,715,weatherlink.com 1.10,2013-08-09 13:39:00,
2013-08-09 09:54:00,86.7,78.0,29.94,ENE,70,8.0,21.0,75,0.00,,,0.22,756,weatherlink.com 1.10,2013-08-09 13:54:00,
2013-08-09 10:10:00,86.9,78.0,29.94,ESE,103,12.0,19.0,74,0.00,,,0.22,773,weatherlink.com 1.10,2013-08-09 14:10:00,
2013-08-09 10:25:00,86.9,78.0,29.94,NE,46,7.0,19.0,75,0.00,,,0.22,809,weatherlink.com 1.10,2013-08-09 14:25:00,
2013-08-09 10:40:00,87.1,78.0,29.95,East,87,19.0,19.0,75,0.00,,,0.22,882,weatherlink.com 1.10,2013-08-09 14:40:00,
2013-08-09 10:55:00,86.4,78.0,29.95,ENE,77,5.0,16.0,75,0.00,,,0.22,893,weatherlink.com 1.10,2013-08-09 14:55:00,
2013-08-09 11:10:00,87.4,79.0,29.95,NE,35,10.0,21.0,75,0.00,,,0.22,1013,weatherlink.com 1.10,2013-08-09 15:10:00,
2013-08-09 11:25:00,87.9,78.0,29.94,ENE,73,9.0,16.0,73,0.00,,,0.22,543,weatherlink.com 1.10,2013-08-09 15:25:00,
2013-08-09 11:40:00,87.7,79.0,29.94,NNE,18,10.0,19.0,75,0.00,,,0.22,949,weatherlink.com 1.10,2013-08-09 15:40:00,
2013-08-09 11:55:00,88.7,79.0,29.94,East,83,14.0,21.0,72,0.00,,,0.22,921,weatherlink.com 1.10,2013-08-09 15:55:00,
2013-08-09 12:10:00,88.7,78.0,29.94,ENE,68,7.0,21.0,70,0.00,,,0.22,731,weatherlink.com 1.10,2013-08-09 16:10:00,
2013-08-09 12:25:00,89.0,78.0,29.94,ENE,76,10.0,16.0,71,0.00,,,0.22,930,weatherlink.com 1.10,2013-08-09 16:25:00,
2013-08-09 12:40:00,89.1,79.0,29.93,ENE,76,7.0,17.0,71,0.00,,,0.22,937,weatherlink.com 1.10,2013-08-09 16:40:00,
2013-08-09 12:55:00,88.8,78.0,29.93,NE,50,12.0,16.0,71,0.00,,,0.22,935,weatherlink.com 1.10,2013-08-09 16:55:00,
2013-08-09 13:10:00,88.4,79.0,29.93,NE,54,9.0,17.0,74,0.00,,,0.22,626,weatherlink.com 1.10,2013-08-09 17:10:00,
2013-08-09 13:25:00,87.2,79.0,29.93,ENE,71,8.0,15.0,77,0.04,,,0.26,211,weatherlink.com 1.10,2013-08-09 17:25:00,
2013-08-09 13:40:00,83.7,77.0,29.93,East,86,7.0,18.0,81,0.06,,,0.28,285,weatherlink.com 1.10,2013-08-09 17:40:00,
2013-08-09 13:55:00,83.8,80.0,29.92,ENE,71,3.0,15.0,87,0.07,,,0.29,1046,weatherlink.com 1.10,2013-08-09 17:55:00,
2013-08-09 14:10:00,84.9,79.0,29.92,ENE,71,4.0,14.0,83,0.07,,,0.29,448,weatherlink.com 1.10,2013-08-09 18:10:00,
2013-08-09 14:25:00,86.3,80.0,29.91,ENE,62,11.0,14.0,80,0.03,,,0.29,517,weatherlink.com 1.10,2013-08-09 18:25:00,
2013-08-09 14:40:00,86.9,79.0,29.90,ENE,74,10.0,11.0,76,0.01,,,0.29,652,weatherlink.com 1.10,2013-08-09 18:40:00,
2013-08-09 14:55:00,86.7,78.0,29.90,East,84,10.0,17.0,76,0.00,,,0.29,374,weatherlink.com 1.10,2013-08-09 18:55:00,
2013-08-09 15:10:00,86.3,78.0,29.90,ENE,61,8.0,14.0,77,0.00,,,0.29,452,weatherlink.com 1.10,2013-08-09 19:10:00,
2013-08-09 15:25:00,86.3,78.0,29.90,ESE,105,5.0,15.0,77,0.00,,,0.29,390,weatherlink.com 1.10,2013-08-09 19:25:00,
2013-08-09 15:40:00,87.2,78.0,29.90,East,92,8.0,22.0,75,0.00,,,0.29,798,weatherlink.com 1.10,2013-08-09 19:40:00,
2013-08-09 15:55:00,86.5,79.0,29.90,ENE,78,8.0,17.0,79,0.01,,,0.30,336,weatherlink.com 1.10,2013-08-09 19:55:00,
2013-08-09 16:10:00,84.2,78.0,29.90,NE,55,7.0,19.0,82,0.01,,,0.30,165,weatherlink.com 1.10,2013-08-09 20:10:00,
2013-08-09 16:25:00,84.4,79.0,29.89,East,80,8.0,14.0,83,0.01,,,0.30,343,weatherlink.com 1.10,2013-08-09 20:25:00,
2013-08-09 16:40:00,82.4,76.0,29.90,South,191,4.0,23.0,80,0.07,,,0.36,116,weatherlink.com 1.10,2013-08-09 20:40:00,
2013-08-09 16:55:00,81.6,77.0,29.90,East,101,1.0,9.0,86,0.06,,,0.36,316,weatherlink.com 1.10,2013-08-09 20:55:00,
2013-08-09 17:10:00,81.8,77.0,29.90,ENE,62,3.0,11.0,86,0.06,,,0.36,104,weatherlink.com 1.10,2013-08-09 21:10:00,
2013-08-09 17:25:00,81.3,77.0,29.91,ENE,69,7.0,11.0,86,0.06,,,0.36,56,weatherlink.com 1.10,2013-08-09 21:25:00,
2013-08-09 17:40:00,75.7,71.0,29.91,ESE,115,4.0,22.0,84,0.16,,,0.52,74,weatherlink.com 1.10,2013-08-09 21:40:00,
2013-08-09 17:55:00,76.3,72.0,29.92,ENE,73,12.0,17.0,87,0.16,,,0.52,33,weatherlink.com 1.10,2013-08-09 21:55:00,
2013-08-09 18:10:00,76.5,73.0,29.91,ESE,104,5.0,17.0,88,0.21,,,0.57,35,weatherlink.com 1.10,2013-08-09 22:10:00,
2013-08-09 18:25:00,76.9,74.0,29.91,East,92,3.0,9.0,89,0.21,,,0.57,26,weatherlink.com 1.10,2013-08-09 22:25:00,
2013-08-09 18:40:00,77.6,74.0,29.92,East,92,5.0,10.0,88,0.05,,,0.57,14,weatherlink.com 1.10,2013-08-09 22:40:00,
2013-08-09 18:55:00,77.8,74.0,29.92,NE,46,4.0,6.0,89,0.05,,,0.57,0,weatherlink.com 1.10,2013-08-09 22:55:00,
2013-08-09 19:10:00,78.0,74.0,29.93,East,80,3.0,10.0,88,0.00,,,0.57,0,weatherlink.com 1.10,2013-08-09 23:10:00,
2013-08-09 19:25:00,78.0,75.0,29.93,ESE,113,3.0,10.0,89,0.00,,,0.57,0,weatherlink.com 1.10,2013-08-09 23:25:00,
2013-08-09 19:40:00,77.8,74.0,29.92,East,92,3.0,9.0,88,0.00,,,0.57,0,weatherlink.com 1.10,2013-08-09 23:40:00,
2013-08-09 19:55:00,77.8,74.0,29.93,ENE,63,2.0,5.0,88,0.00,,,0.57,0,weatherlink.com 1.10,2013-08-09 23:55:00,
2013-08-09 20:10:00,78.0,74.0,29.94,ENE,74,1.0,5.0,88,0.00,,,0.57,0,weatherlink.com 1.10,2013-08-10 00:10:00,
2013-08-09 20:25:00,78.2,74.0,29.94,ENE,74,3.0,7.0,88,0.00,,,0.57,0,weatherlink.com 1.10,2013-08-10 00:25:00,
2013-08-09 20:40:00,78.4,74.0,29.94,East,91,2.0,8.0,87,0.00,,,0.57,0,weatherlink.com 1.10,2013-08-10 00:40:00,
2013-08-09 20:55:00,78.7,75.0,29.95,East,91,1.0,6.0,89,0.00,,,0.57,0,weatherlink.com 1.10,2013-08-10 00:55:00,
2013-08-09 21:10:00,79.1,76.0,29.95,East,91,1.0,5.0,90,0.00,,,0.57,0,weatherlink.com 1.10,2013-08-10 01:10:00,
2013-08-09 21:25:00,79.5,76.0,29.95,East,91,0.0,6.0,90,0.00,,,0.57,0,weatherlink.com 1.10,2013-08-10 01:25:00,
2013-08-09 21:40:00,79.5,76.0,29.95,East,82,3.0,5.0,90,0.00,,,0.57,0,weatherlink.com 1.10,2013-08-10 01:40:00,
2013-08-09 21:55:00,79.8,77.0,29.96,ENE,65,1.0,8.0,90,0.00,,,0.57,0,weatherlink.com 1.10,2013-08-10 01:55:00,
2013-08-09 22:10:00,80.2,77.0,29.96,ENE,65,0.0,4.0,90,0.00,,,0.57,0,weatherlink.com 1.10,2013-08-10 02:10:00,
2013-08-09 22:25:00,80.2,77.0,29.97,ENE,65,0.0,2.0,90,0.00,,,0.57,0,weatherlink.com 1.10,2013-08-10 02:25:00,
2013-08-09 22:40:00,80.0,77.0,29.97,ENE,65,0.0,2.0,90,0.02,,,0.59,0,weatherlink.com 1.10,2013-08-10 02:40:00,
2013-08-09 22:55:00,79.5,76.0,29.97,ENE,65,0.0,1.0,90,0.02,,,0.59,0,weatherlink.com 1.10,2013-08-10 02:55:00,
2013-08-09 23:10:00,79.2,76.0,29.97,ENE,65,0.0,0.0,91,0.02,,,0.59,0,weatherlink.com 1.10,2013-08-10 03:10:00,
2013-08-09 23:25:00,79.1,77.0,29.97,ENE,65,0.0,1.0,92,0.02,,,0.59,0,weatherlink.com 1.10,2013-08-10 03:25:00,
2013-08-09 23:40:00,79.1,77.0,29.97,ENE,65,0.0,0.0,92,0.00,,,0.59,0,weatherlink.com 1.10,2013-08-10 03:40:00,
2013-08-09 23:55:00,79.2,77.0,29.97,ENE,65,0.0,1.0,92,0.00,,,0.59,0,weatherlink.com 1.10,2013-08-10 03:55:00,